createdAt,value
2023-03-07T00:00:50.419Z,8.5
2023-03-07T00:02:55.706Z,9.1
2023-03-07T00:04:57.676Z,8.5
2023-03-07T00:06:59.660Z,6.9
2023-03-07T00:09:01.652Z,8.4
2023-03-07T00:11:03.747Z,9
2023-03-07T00:13:05.730Z,8.7
2023-03-07T00:15:07.752Z,7.4
2023-03-07T00:17:12.978Z,6.7
2023-03-07T00:19:14.975Z,5.7
2023-03-07T00:21:16.988Z,5.4
2023-03-07T00:23:18.971Z,4.9
2023-03-07T00:27:22.979Z,4.8
2023-03-07T00:29:24.988Z,5.1
2023-03-07T00:31:30.240Z,4.8
2023-03-07T00:33:32.211Z,4.2
2023-03-07T00:35:34.236Z,6.3
2023-03-07T00:40:40.822Z,6.8
2023-03-07T00:42:42.783Z,7.5
2023-03-07T00:44:48.051Z,6
2023-03-07T00:46:50.050Z,7.4
2023-03-07T00:48:52.033Z,8.2
2023-03-07T00:50:54.028Z,6.9
2023-03-07T00:52:55.996Z,8.6
2023-03-07T00:54:57.993Z,7.8
2023-03-07T00:56:59.983Z,9.7
2023-03-07T00:59:05.219Z,7.7
2023-03-07T01:01:07.231Z,10.2
2023-03-07T01:03:09.175Z,10.4
2023-03-07T01:05:11.201Z,10.4
2023-03-07T01:07:13.163Z,11.3
2023-03-07T01:09:15.176Z,10.8
2023-03-07T01:11:17.146Z,11.6
2023-03-07T01:13:22.395Z,13.3
2023-03-07T01:15:24.379Z,13.9
2023-03-07T01:17:26.362Z,13.6
2023-03-07T01:19:28.359Z,12.9
2023-03-07T01:21:30.322Z,12.6
2023-03-07T01:23:32.347Z,14
2023-03-07T01:25:34.340Z,9.5
2023-03-07T01:27:39.582Z,11.2
2023-03-07T01:29:41.554Z,10.7
2023-03-07T01:31:43.572Z,11.2
2023-03-07T01:36:50.250Z,7.8
2023-03-07T01:38:52.172Z,8.5
2023-03-07T01:40:57.390Z,9.9
2023-03-07T01:42:59.399Z,9.3
2023-03-07T01:45:01.424Z,6.8
2023-03-07T01:47:03.389Z,7.5
2023-03-07T01:49:05.381Z,6.7
2023-03-07T01:51:07.390Z,7.5
2023-03-07T01:53:09.373Z,7.4
2023-03-07T01:55:14.622Z,6
2023-03-07T01:57:16.604Z,6.5
2023-03-07T02:01:20.676Z,6.4
2023-03-07T02:03:22.607Z,5.8
2023-03-07T02:05:24.611Z,6.3
2023-03-07T02:07:26.595Z,6.6
2023-03-07T02:09:31.864Z,6.5
2023-03-07T02:11:33.841Z,8
2023-03-07T02:13:35.836Z,7.2
2023-03-07T02:15:37.845Z,9.3
2023-03-07T02:17:39.794Z,7.1
2023-03-07T02:19:41.776Z,7.6
2023-03-07T02:21:43.743Z,7.9
2023-03-07T02:28:55.581Z,8.8
2023-03-07T02:30:57.613Z,8.1
2023-03-07T02:35:01.522Z,6.6
2023-03-07T02:37:06.767Z,8.8
2023-03-07T02:39:08.756Z,6.2
2023-03-07T02:41:10.731Z,5.4
2023-03-07T02:43:12.714Z,6
2023-03-07T02:45:14.732Z,5.4
2023-03-07T02:47:16.704Z,4.3
2023-03-07T02:49:18.661Z,4.5
2023-03-07T02:51:23.890Z,5.4
2023-03-07T02:59:31.840Z,4.4
2023-03-07T03:03:35.793Z,4.2
2023-03-07T03:09:44.993Z,4.1
2023-03-07T03:11:46.964Z,3.7
2023-03-07T03:15:51.042Z,4.1
2023-03-07T03:17:52.935Z,3
2023-03-07T03:22:00.160Z,3.2
2023-03-07T03:24:02.109Z,3.5
2023-03-07T03:28:32.928Z,3.3
2023-03-07T03:30:34.915Z,2.8
2023-03-07T03:32:40.164Z,3.1
2023-03-07T03:34:42.107Z,3.7
2023-03-07T03:36:44.069Z,3.2
2023-03-07T03:38:46.047Z,2.9
2023-03-07T03:44:52.036Z,3.1
2023-03-07T03:46:57.320Z,2.6
2023-03-07T03:48:59.215Z,4
2023-03-07T03:51:01.220Z,3.3
2023-03-07T03:55:05.209Z,4.2
2023-03-07T03:57:07.162Z,4.3
2023-03-07T03:59:09.154Z,2.9
2023-03-07T04:03:16.352Z,4.6
2023-03-07T04:05:18.360Z,4.2
2023-03-07T04:07:20.337Z,2.8
2023-03-07T04:09:22.296Z,2.9
2023-03-07T04:11:24.247Z,3.7
2023-03-07T04:13:26.271Z,4.1
2023-03-07T04:15:31.459Z,4.5
2023-03-07T04:17:33.464Z,3.4
2023-03-07T04:19:35.424Z,3.7
2023-03-07T04:22:40.023Z,3.7
2023-03-07T04:24:41.976Z,6.3
2023-03-07T04:26:44.000Z,3.7
2023-03-07T04:28:49.449Z,4.7
2023-03-07T04:30:51.208Z,3.8
2023-03-07T04:32:53.176Z,3.9
2023-03-07T04:34:55.161Z,3.1
2023-03-07T04:36:57.134Z,3.8
2023-03-07T04:38:59.178Z,4.4
2023-03-07T04:41:01.094Z,3.4
2023-03-07T04:43:06.321Z,4.6
2023-03-07T04:45:08.319Z,4.5
2023-03-07T04:47:10.294Z,3.5
2023-03-07T04:49:12.311Z,4.4
2023-03-07T04:51:14.274Z,4.2
2023-03-07T04:53:16.267Z,4.6
2023-03-07T04:55:18.239Z,5
2023-03-07T04:57:23.463Z,4.8
2023-03-07T04:59:25.439Z,4.9
2023-03-07T05:01:27.484Z,5.6
2023-03-07T05:03:30.987Z,3.3
2023-03-07T05:05:32.895Z,4.7
2023-03-07T05:07:34.901Z,4.7
2023-03-07T05:09:36.846Z,4.3
2023-03-07T05:11:42.096Z,5.2
2023-03-07T05:13:44.082Z,4.8
2023-03-07T05:15:46.090Z,4.5
2023-03-07T05:18:50.642Z,3.8
2023-03-07T05:20:52.616Z,3.9
2023-03-07T05:22:54.598Z,3
2023-03-07T05:24:59.820Z,3.9
2023-03-07T05:27:01.833Z,3.7
2023-03-07T05:29:03.754Z,3.9
2023-03-07T05:31:05.811Z,4
2023-03-07T05:33:07.739Z,2.8
2023-03-07T05:35:09.708Z,2.1
2023-03-07T05:37:11.668Z,3.7
2023-03-07T05:39:16.896Z,2.6
2023-03-07T05:41:18.892Z,2.7
2023-03-07T05:43:20.858Z,2.9
2023-03-07T05:45:22.865Z,2.2
2023-03-07T05:47:24.822Z,0.9
2023-03-07T05:49:26.791Z,1.1
2023-03-07T05:51:28.777Z,1.8
2023-03-07T05:53:34.006Z,1.3
2023-03-07T05:55:35.964Z,1.2
2023-03-07T05:57:37.948Z,1.2
2023-03-07T05:59:39.898Z,0.8
2023-03-07T06:01:41.857Z,1.8
2023-03-07T06:03:43.851Z,1
2023-03-07T06:05:45.791Z,1.9
2023-03-07T06:07:51.021Z,1.4
2023-03-07T06:09:52.966Z,1.2
2023-03-07T06:11:54.934Z,1.4
2023-03-07T06:17:01.478Z,1.5
2023-03-07T06:25:12.500Z,1
2023-03-07T06:27:14.465Z,1.7
2023-03-07T06:29:16.423Z,1.8
2023-03-07T06:33:20.314Z,1.2
2023-03-07T06:35:25.524Z,1.3
2023-03-07T06:37:27.454Z,1.2
2023-03-07T06:39:31.327Z,1.3
2023-03-07T06:41:31.392Z,2.3
2023-03-07T06:43:33.322Z,1.3
2023-03-07T06:47:37.188Z,1.6
2023-03-07T06:49:42.390Z,1.2
2023-03-07T06:51:44.307Z,1.5
2023-03-07T06:53:46.253Z,1.6
2023-03-07T06:55:48.194Z,2.6
2023-03-07T06:57:50.177Z,2
2023-03-07T06:59:52.058Z,1.6
2023-03-07T07:01:54.114Z,2.1
2023-03-07T07:03:59.207Z,1.8
2023-03-07T07:06:01.135Z,1.5
2023-03-07T07:08:03.084Z,1.5
2023-03-07T07:10:31.895Z,1.4
2023-03-07T07:12:33.827Z,1.4
2023-03-07T07:14:35.736Z,1.7
2023-03-07T07:18:42.858Z,1.9
2023-03-07T07:28:52.462Z,1.8
2023-03-07T07:30:57.637Z,1.1
2023-03-07T07:32:59.651Z,1.3
2023-03-07T07:35:01.460Z,1.4
2023-03-07T07:39:05.323Z,1.8
2023-03-07T07:41:07.195Z,0.9
2023-03-07T07:43:09.120Z,1.8
2023-03-07T07:45:14.203Z,1.6
2023-03-07T07:53:21.947Z,2
2023-03-07T07:55:23.779Z,2.1
2023-03-07T07:57:25.679Z,1.6
2023-03-07T08:01:32.734Z,1.9
2023-03-07T08:03:34.620Z,1.9
2023-03-07T08:06:39.105Z,2.1
2023-03-07T08:08:41.012Z,3.4
2023-03-07T08:10:42.960Z,2.2
2023-03-07T08:16:51.919Z,3
2023-03-07T08:18:53.816Z,2.1
2023-03-07T08:20:55.725Z,3.8
2023-03-07T08:22:57.647Z,2.4
2023-03-07T08:24:59.567Z,2.4
2023-03-07T08:27:04.712Z,2.2
2023-03-07T08:29:06.638Z,2.4
2023-03-07T08:31:08.630Z,2.4
2023-03-07T08:33:10.439Z,3
2023-03-07T08:35:12.373Z,2.5
2023-03-07T08:37:14.288Z,2.5
2023-03-07T08:41:21.393Z,1.9
2023-03-07T08:43:23.292Z,1.9
2023-03-07T08:45:25.219Z,1.7
2023-03-07T08:47:27.126Z,2.2
2023-03-07T08:49:29.052Z,2.2
2023-03-07T08:51:30.971Z,2.2
2023-03-07T08:53:32.886Z,3.1
2023-03-07T08:55:38.072Z,2.7
2023-03-07T08:57:39.991Z,2.2
2023-03-07T08:59:41.914Z,1.8
2023-03-07T09:00:44.510Z,1.9
2023-03-07T09:02:46.439Z,1.8
2023-03-07T09:04:48.369Z,2.5
2023-03-07T09:06:50.289Z,2.2
2023-03-07T09:08:55.474Z,2.8
2023-03-07T09:10:57.390Z,2.6
2023-03-07T09:12:59.326Z,1.8
2023-03-07T09:15:01.306Z,2.2
2023-03-07T09:17:03.192Z,2.2
2023-03-07T09:19:05.129Z,4.3
2023-03-07T09:23:12.249Z,2.7
2023-03-07T09:25:14.199Z,2.9
2023-03-07T09:27:16.147Z,3.1
2023-03-07T09:33:21.965Z,5.9
2023-03-07T09:35:23.908Z,4
2023-03-07T09:37:29.083Z,4.3
2023-03-07T09:39:31.051Z,4.9
2023-03-07T09:41:32.963Z,5.2
2023-03-07T09:43:34.921Z,6.7
2023-03-07T09:45:38.960Z,7.4
2023-03-07T09:47:38.839Z,5.2
2023-03-07T09:49:40.780Z,6.7
2023-03-07T09:51:45.982Z,6.7
2023-03-07T09:53:47.930Z,5.7
2023-03-07T09:55:49.872Z,6.8
2023-03-07T09:56:52.479Z,6.9
2023-03-07T09:58:54.431Z,6.8
2023-03-07T10:00:56.384Z,5.8
2023-03-07T10:02:58.318Z,5.2
2023-03-07T10:05:03.526Z,6
2023-03-07T10:07:05.504Z,6.4
2023-03-07T10:09:07.489Z,8.8
2023-03-07T10:11:09.392Z,7.7
2023-03-07T10:13:11.350Z,6.2
2023-03-07T10:15:13.333Z,8.3
2023-03-07T10:17:15.271Z,7.9
2023-03-07T10:19:20.476Z,7.5
2023-03-07T10:21:22.432Z,9.2
2023-03-07T10:23:24.401Z,8.5
2023-03-07T10:25:26.343Z,8.2
2023-03-07T10:27:28.311Z,5.8
2023-03-07T10:29:30.263Z,8.8
2023-03-07T10:31:32.294Z,7.9
2023-03-07T10:33:39.906Z,8.3
2023-03-07T10:35:39.413Z,8.2
2023-03-07T10:37:41.359Z,7.5
2023-03-07T10:39:43.311Z,10.1
2023-03-07T10:41:45.277Z,8.8
2023-03-07T10:43:47.226Z,6.9
2023-03-07T10:45:49.250Z,6.5
2023-03-07T10:47:54.417Z,6.8
2023-03-07T10:49:56.384Z,4
2023-03-07T10:51:58.360Z,5.7
2023-03-07T10:54:28.081Z,5.8
2023-03-07T10:56:28.482Z,5.5
2023-03-07T10:58:30.443Z,5.3
2023-03-07T11:00:35.654Z,6.4
2023-03-07T11:02:37.638Z,5.5
2023-03-07T11:04:39.609Z,4.9
2023-03-07T11:06:41.591Z,4.9
2023-03-07T11:08:43.579Z,6
2023-03-07T11:10:45.536Z,4.5
2023-03-07T11:12:47.494Z,5.3
2023-03-07T11:14:52.734Z,5.8
2023-03-07T11:16:54.685Z,5.4
2023-03-07T11:18:56.671Z,4.5
2023-03-07T11:20:58.660Z,5
2023-03-07T11:23:00.652Z,4.9
2023-03-07T11:25:02.637Z,5.7
2023-03-07T11:27:04.649Z,3.8
2023-03-07T11:31:11.842Z,4
2023-03-07T11:35:15.869Z,2.5
2023-03-07T11:37:17.775Z,2.2
2023-03-07T11:39:19.751Z,3.2
2023-03-07T11:41:21.748Z,3.4
2023-03-07T11:43:26.968Z,3.7
2023-03-07T11:47:30.938Z,3.4
2023-03-07T11:48:33.552Z,4.4
2023-03-07T11:50:35.523Z,6
2023-03-07T11:54:39.492Z,3.7
2023-03-07T11:56:44.722Z,3.7
2023-03-07T11:58:46.720Z,4
2023-03-07T12:00:48.729Z,3.9
2023-03-07T12:02:50.719Z,2.5
2023-03-07T12:04:52.657Z,3.7
2023-03-07T12:06:54.627Z,4.1
2023-03-07T12:08:56.617Z,2.3
2023-03-07T12:11:01.805Z,2.7
2023-03-07T12:13:03.800Z,2
2023-03-07T12:15:05.800Z,4.4
2023-03-07T12:17:07.749Z,4
2023-03-07T12:19:09.738Z,4.8
2023-03-07T12:21:11.698Z,1.9
2023-03-07T12:23:13.672Z,4.4
2023-03-07T12:25:18.880Z,2
2023-03-07T12:27:20.877Z,2.5
2023-03-07T12:29:22.858Z,1.1
2023-03-07T12:31:24.897Z,1
2023-03-07T12:39:35.945Z,1.7
2023-03-07T12:41:37.938Z,0.9
2023-03-07T12:43:39.873Z,1.1
2023-03-07T12:44:42.477Z,0.9
2023-03-07T12:46:44.452Z,1.2
2023-03-07T12:48:46.451Z,1.2
2023-03-07T12:50:48.406Z,0.9
2023-03-07T12:52:53.608Z,0.7
2023-03-07T12:54:55.569Z,1
2023-03-07T12:56:57.529Z,0.7
2023-03-07T12:58:59.519Z,0.7
2023-03-07T13:01:01.627Z,0.8
2023-03-07T13:03:03.453Z,0.4
2023-03-07T13:05:05.419Z,0.7
2023-03-07T13:07:10.613Z,0.7
2023-03-07T13:09:12.588Z,0.7
2023-03-07T13:11:14.570Z,0.5
2023-03-07T13:13:16.505Z,0.8
2023-03-07T13:15:18.514Z,0.6
2023-03-07T13:17:20.474Z,0.6
2023-03-07T13:19:22.525Z,1.1
2023-03-07T13:21:27.704Z,0.9
2023-03-07T13:23:29.742Z,0.6
2023-03-07T13:25:31.618Z,1.5
2023-03-07T13:27:33.627Z,1.2
2023-03-07T13:29:35.638Z,1.1
2023-03-07T13:31:37.605Z,2.1
2023-03-07T13:33:39.562Z,1.1
2023-03-07T13:35:44.839Z,0.9
2023-03-07T13:37:46.808Z,0.7
2023-03-07T13:39:48.813Z,1
2023-03-07T13:42:53.406Z,1.7
2023-03-07T13:44:55.422Z,1
2023-03-07T13:46:57.420Z,1.4
2023-03-07T13:49:02.685Z,1.2
2023-03-07T13:51:04.639Z,1.1
2023-03-07T13:53:06.649Z,1.5
2023-03-07T13:55:08.656Z,1
2023-03-07T13:57:10.628Z,1.1
2023-03-07T13:59:12.652Z,0.7
2023-03-07T14:01:14.733Z,1.8
2023-03-07T14:03:19.906Z,1.1
2023-03-07T14:05:21.880Z,1.9
2023-03-07T14:07:23.888Z,1.5
2023-03-07T14:09:25.918Z,1.5
2023-03-07T14:13:29.918Z,1
2023-03-07T14:15:31.928Z,1.3
2023-03-07T14:17:37.138Z,2.3
2023-03-07T14:19:39.145Z,1.7
2023-03-07T14:21:41.141Z,0.9
2023-03-07T14:23:43.142Z,6.5
2023-03-07T14:25:45.112Z,1.9
2023-03-07T14:27:47.111Z,1.4
2023-03-07T14:29:49.103Z,1.8
2023-03-07T14:31:54.377Z,3.2
2023-03-07T14:33:56.331Z,2.3
2023-03-07T14:35:58.383Z,0.9
2023-03-07T14:40:29.105Z,6.3
2023-03-07T14:42:31.086Z,1.4
2023-03-07T14:44:36.287Z,2.2
2023-03-07T14:46:38.276Z,1
2023-03-07T14:48:40.198Z,1.1
2023-03-07T14:50:42.161Z,2.3
2023-03-07T14:52:44.136Z,1.9
2023-03-07T14:54:46.087Z,9.7
2023-03-07T14:56:48.047Z,2.3
2023-03-07T14:58:53.204Z,1.6
2023-03-07T15:04:59.069Z,1.5
2023-03-07T15:07:01.042Z,17.1
2023-03-07T15:09:02.982Z,6.2
2023-03-07T15:11:04.929Z,3.8
2023-03-07T15:15:12.034Z,1.5
2023-03-07T15:17:13.994Z,1.5
2023-03-07T15:19:15.901Z,1.2
2023-03-07T15:21:17.901Z,1.1
2023-03-07T15:23:19.786Z,1.1
2023-03-07T15:25:23.969Z,1.9
2023-03-07T15:27:26.885Z,1.1
2023-03-07T15:29:28.843Z,1.7
2023-03-07T15:31:30.818Z,1.3
2023-03-07T15:32:33.454Z,0.9
2023-03-07T15:34:35.272Z,0.9
2023-03-07T15:38:39.122Z,1.1
2023-03-07T15:40:44.265Z,1
2023-03-07T15:44:48.146Z,1.1
2023-03-07T15:46:50.042Z,1.2
2023-03-07T15:48:51.966Z,1.1
2023-03-07T15:50:53.912Z,1
2023-03-07T15:52:55.821Z,2.1
2023-03-07T15:55:00.992Z,2.2
2023-03-07T15:57:02.907Z,1.6
2023-03-07T16:05:10.614Z,1.9
2023-03-07T16:07:12.522Z,1.5
2023-03-07T16:09:17.693Z,2.2
2023-03-07T16:11:19.613Z,2.5
2023-03-07T16:13:21.561Z,2.3
2023-03-07T16:15:23.463Z,2.3
2023-03-07T16:17:25.369Z,2.7
2023-03-07T16:19:27.327Z,2.1
2023-03-07T16:21:29.233Z,2
2023-03-07T16:23:34.405Z,2.2
2023-03-07T16:25:36.304Z,2.6
2023-03-07T16:27:38.224Z,2.5
2023-03-07T16:28:41.816Z,3
2023-03-07T16:30:42.722Z,2.7
2023-03-07T16:34:46.565Z,2.7
2023-03-07T16:36:51.724Z,3.3
2023-03-07T16:38:53.600Z,3.7
2023-03-07T16:44:59.353Z,4.7
2023-03-07T16:47:02.832Z,4.3
2023-03-07T16:49:04.712Z,4.6
2023-03-07T16:51:09.850Z,4.5
2023-03-07T16:53:11.766Z,3.5
2023-03-07T16:55:13.708Z,4.1
2023-03-07T16:57:15.612Z,3.5
2023-03-07T16:59:17.532Z,3.7
2023-03-07T17:01:19.458Z,3.5
2023-03-07T17:03:21.326Z,4.4
2023-03-07T17:07:28.389Z,3.6
2023-03-07T17:09:30.302Z,4.4
2023-03-07T17:11:32.215Z,3.5
2023-03-07T17:15:36.090Z,4
2023-03-07T17:17:37.941Z,5.3
2023-03-07T17:19:43.076Z,6
2023-03-07T17:21:44.996Z,5.8
2023-03-07T17:23:46.902Z,4.5
2023-03-07T17:24:49.490Z,4.3
2023-03-07T17:26:51.373Z,1.5
2023-03-07T17:28:53.254Z,1.7
2023-03-07T17:30:55.233Z,2.2
2023-03-07T17:33:00.344Z,1.9
2023-03-07T17:35:02.256Z,2.1
2023-03-07T17:37:04.134Z,1.4
2023-03-07T17:39:07.396Z,1.8
2023-03-07T17:41:07.958Z,1.3
2023-03-07T17:45:11.753Z,3.1
2023-03-07T17:47:16.868Z,2.7
2023-03-07T17:49:18.771Z,2.9
2023-03-07T17:51:20.662Z,2.5
2023-03-07T17:53:22.551Z,3.3
2023-03-07T17:55:24.457Z,3.9
2023-03-07T17:57:26.335Z,3.9
2023-03-07T17:59:28.239Z,4
2023-03-07T18:01:33.441Z,4.3
2023-03-07T18:03:35.260Z,5.9
2023-03-07T18:05:37.175Z,5.3
2023-03-07T18:07:39.042Z,6.7
2023-03-07T18:11:42.828Z,5.1
2023-03-07T18:13:44.718Z,5.2
2023-03-07T18:15:49.901Z,7
2023-03-07T18:19:53.642Z,5.8
2023-03-07T18:22:22.486Z,5
2023-03-07T18:24:24.393Z,5.8
2023-03-07T18:26:27.237Z,5.8
2023-03-07T18:28:31.431Z,6.6
2023-03-07T18:30:33.358Z,6.1
2023-03-07T18:32:35.312Z,5.8
2023-03-07T18:36:39.057Z,5
2023-03-07T18:38:40.970Z,4.6
2023-03-07T18:40:42.867Z,5.3
2023-03-07T18:42:48.037Z,5.2
2023-03-07T18:44:49.892Z,5.4
2023-03-07T18:46:51.932Z,6.8
2023-03-07T18:48:53.726Z,5.8
2023-03-07T18:50:55.605Z,6.8
2023-03-07T18:52:57.492Z,6.3
2023-03-07T18:54:59.392Z,7.8
2023-03-07T18:57:04.540Z,7.4
2023-03-07T18:59:06.419Z,5.9
2023-03-07T19:01:08.364Z,6.9
2023-03-07T19:03:10.182Z,7.4
2023-03-07T19:05:12.053Z,8.2
2023-03-07T19:07:13.966Z,8.3
2023-03-07T19:09:15.884Z,6
2023-03-07T19:11:20.905Z,7.2
2023-03-07T19:13:22.886Z,7.1
2023-03-07T19:15:24.666Z,7.3
2023-03-07T19:16:27.288Z,6.6
2023-03-07T19:18:29.087Z,6.2
2023-03-07T19:20:30.978Z,5.7
2023-03-07T19:22:32.832Z,5.9
2023-03-07T19:24:37.962Z,4.9
2023-03-07T19:28:41.666Z,5
2023-03-07T19:30:43.533Z,4.5
2023-03-07T19:32:45.474Z,5.2
2023-03-07T19:34:47.274Z,6
2023-03-07T19:36:49.151Z,5.5
2023-03-07T19:44:59.810Z,5.4
2023-03-07T19:47:01.673Z,4.2
2023-03-07T19:49:03.532Z,4.1
2023-03-07T19:51:05.381Z,4.5
2023-03-07T19:55:12.350Z,5.6
2023-03-07T19:57:14.213Z,5.3
2023-03-07T20:05:21.664Z,4.4
2023-03-07T20:12:32.908Z,5.4
2023-03-07T20:14:34.772Z,6.5
2023-03-07T20:16:36.603Z,5
2023-03-07T20:18:38.443Z,6.1
2023-03-07T20:20:43.521Z,7.2
2023-03-07T20:22:45.377Z,7.6
2023-03-07T20:24:47.239Z,7.9
2023-03-07T20:26:49.083Z,9.7
2023-03-07T20:28:50.904Z,9.1
2023-03-07T20:30:52.808Z,10.1
2023-03-07T20:32:54.587Z,9.6
2023-03-07T20:37:01.509Z,9.8
2023-03-07T20:39:03.348Z,9.4
2023-03-07T20:41:05.191Z,9.6
2023-03-07T20:43:07.036Z,8.1
2023-03-07T20:45:08.879Z,10.1
2023-03-07T20:47:10.718Z,9.1
2023-03-07T20:49:15.831Z,9.8
2023-03-07T20:51:17.633Z,10.4
2023-03-07T20:53:19.482Z,8.3
2023-03-07T20:55:21.323Z,10.1
2023-03-07T20:57:23.166Z,9.7
2023-03-07T20:59:24.986Z,10.8
2023-03-07T21:01:26.947Z,10.2
2023-03-07T21:03:31.929Z,12.3
2023-03-07T21:05:33.762Z,14.3
2023-03-07T21:07:35.620Z,13.6
2023-03-07T21:08:38.141Z,14.1
2023-03-07T21:10:40.304Z,13.1
2023-03-07T21:12:42.136Z,13.7
2023-03-07T21:14:43.975Z,12.2
2023-03-07T21:16:49.095Z,12.2
2023-03-07T21:18:50.892Z,11.6
2023-03-07T21:20:52.725Z,12.5
2023-03-07T21:22:54.554Z,11.9
2023-03-07T21:24:56.412Z,12.6
2023-03-07T21:26:58.293Z,13.1
2023-03-07T21:29:00.151Z,12.4
2023-03-07T21:31:05.229Z,15
2023-03-07T21:33:07.028Z,14.3
2023-03-07T21:35:08.870Z,16
2023-03-07T21:37:10.718Z,14
2023-03-07T21:39:12.576Z,16.2
2023-03-07T21:41:14.378Z,15.6
2023-03-07T21:43:16.218Z,14
2023-03-07T21:45:21.550Z,16.1
2023-03-07T21:47:23.109Z,15.9
2023-03-07T21:49:24.940Z,17.3
2023-03-07T21:51:26.794Z,16.6
2023-03-07T21:55:30.455Z,14.7
2023-03-07T21:57:32.282Z,14.5
2023-03-07T21:59:37.649Z,15.2
2023-03-07T22:01:39.481Z,14.8
2023-03-07T22:03:41.326Z,14.2
2023-03-07T22:06:10.151Z,15.3
2023-03-07T22:10:13.804Z,15.7
2023-03-07T22:12:18.866Z,15.8
2023-03-07T22:14:20.667Z,16.9
2023-03-07T22:16:22.580Z,15.8
2023-03-07T22:18:24.300Z,14
2023-03-07T22:20:28.347Z,14.5
2023-03-07T22:22:27.954Z,12.9
2023-03-07T22:24:29.780Z,14.1
2023-03-07T22:26:34.840Z,14.7
2023-03-07T22:28:36.653Z,15.8
2023-03-07T22:30:38.471Z,14.5
2023-03-07T22:32:40.342Z,14.9
2023-03-07T22:38:47.270Z,12.6
2023-03-07T22:44:55.935Z,12.5
2023-03-07T22:46:57.727Z,12.5
2023-03-07T22:48:59.535Z,13.3
2023-03-07T22:51:01.363Z,13
2023-03-07T22:53:03.172Z,11.8
2023-03-07T22:55:08.309Z,10
2023-03-07T22:57:10.094Z,11.8
2023-03-07T22:59:11.922Z,9.5
2023-03-07T23:00:14.452Z,11.2
2023-03-07T23:02:16.236Z,11.8
2023-03-07T23:04:18.060Z,10.9
2023-03-07T23:06:19.850Z,10.1
2023-03-07T23:08:24.902Z,10.9
2023-03-07T23:10:26.739Z,10.3
2023-03-07T23:12:28.523Z,11
2023-03-07T23:14:30.331Z,9.3
2023-03-07T23:16:32.138Z,10.2
2023-03-07T23:18:33.972Z,9.5
2023-03-07T23:20:35.772Z,10.9
2023-03-07T23:22:40.828Z,10.6
2023-03-07T23:24:42.659Z,10
2023-03-07T23:26:44.459Z,9.1
2023-03-07T23:28:46.245Z,9.1
2023-03-07T23:30:48.099Z,8.9
2023-03-07T23:32:49.860Z,7.1
2023-03-07T23:34:51.669Z,8.2
2023-03-07T23:36:56.736Z,8
2023-03-07T23:38:58.550Z,6.8
2023-03-07T23:41:00.363Z,9.3
2023-03-07T23:43:02.152Z,8.1
2023-03-07T23:45:03.969Z,6.4
2023-03-07T23:47:05.775Z,7.4
2023-03-07T23:49:07.583Z,6.5
2023-03-07T23:51:12.626Z,9.4
2023-03-07T23:55:16.214Z,8
2023-03-07T23:56:18.734Z,8.2
2023-03-07T23:58:20.513Z,7.6
